createdAt,value
2022-10-11T00:00:47.225Z,52.15
2022-10-11T00:03:14.672Z,52.08
2022-10-11T00:05:43.869Z,52.16
2022-10-11T00:08:11.937Z,52.11
2022-10-11T00:10:38.663Z,52.12
2022-10-11T00:13:06.048Z,52.04
2022-10-11T00:15:32.448Z,52.10
2022-10-11T00:18:03.247Z,52.04
2022-10-11T00:20:31.633Z,52.20
2022-10-11T00:22:58.109Z,51.97
2022-10-11T00:25:24.573Z,52.05
2022-10-11T00:27:51.058Z,52.15
2022-10-11T00:30:17.597Z,52.04
2022-10-11T00:32:44.081Z,51.95
2022-10-11T00:35:10.617Z,52.01
2022-10-11T00:37:38.653Z,51.92
2022-10-11T00:40:08.762Z,52.00
2022-10-11T00:42:35.441Z,51.90
2022-10-11T00:45:40.469Z,51.99
2022-10-11T00:48:21.657Z,51.90
2022-10-11T00:50:48.358Z,51.88
2022-10-11T00:53:15.389Z,51.87
2022-10-11T00:55:51.376Z,51.98
2022-10-11T00:58:19.161Z,51.92
2022-10-11T01:00:46.476Z,51.89
2022-10-11T01:03:13.015Z,52.01
2022-10-11T01:05:40.194Z,52.05
2022-10-11T01:08:08.178Z,51.79
2022-10-11T01:10:35.024Z,51.93
2022-10-11T01:13:38.221Z,51.88
2022-10-11T01:16:17.273Z,51.89
2022-10-11T01:19:03.442Z,51.79
2022-10-11T01:21:49.349Z,51.47
2022-10-11T01:24:41.664Z,51.81
2022-10-11T01:27:14.098Z,51.72
2022-10-11T01:29:50.502Z,51.71
2022-10-11T01:32:24.594Z,51.86
2022-10-11T01:35:20.128Z,51.70
2022-10-11T01:37:54.207Z,51.64
2022-10-11T01:40:33.261Z,52.21
2022-10-11T01:43:01.609Z,51.67
2022-10-11T01:45:28.255Z,51.83
2022-10-11T01:48:08.396Z,51.62
2022-10-11T01:50:39.571Z,51.79
2022-10-11T01:53:36.193Z,51.63
2022-10-11T01:56:19.786Z,51.73
2022-10-11T01:59:11.081Z,51.64
2022-10-11T02:01:59.422Z,51.75
2022-10-11T02:04:25.837Z,51.68
2022-10-11T02:06:58.421Z,51.63
2022-10-11T02:09:44.588Z,51.55
2022-10-11T02:12:16.569Z,51.60
2022-10-11T02:14:48.133Z,51.56
2022-10-11T02:17:19.366Z,51.52
2022-10-11T02:19:50.247Z,51.70
2022-10-11T02:22:25.129Z,51.66
2022-10-11T02:24:55.594Z,51.64
2022-10-11T02:27:26.596Z,51.54
2022-10-11T02:29:56.056Z,51.47
2022-10-11T02:32:25.521Z,51.71
2022-10-11T02:34:57.632Z,51.62
2022-10-11T02:37:40.860Z,51.56
2022-10-11T02:40:29.422Z,51.54
2022-10-11T02:43:28.000Z,51.61
2022-10-11T02:45:59.485Z,51.67
2022-10-11T02:48:29.968Z,51.58
2022-10-11T02:50:57.733Z,51.83
2022-10-11T02:53:26.165Z,51.57
2022-10-11T02:55:54.452Z,51.63
2022-10-11T02:58:21.826Z,51.55
2022-10-11T03:00:48.536Z,51.56
2022-10-11T03:03:15.762Z,51.49
2022-10-11T03:05:43.504Z,51.45
2022-10-11T03:08:12.144Z,51.48
2022-10-11T03:10:39.623Z,51.47
2022-10-11T03:13:06.300Z,51.44
2022-10-11T03:15:32.962Z,51.49
2022-10-11T03:17:59.786Z,51.62
2022-10-11T03:20:26.616Z,51.48
2022-10-11T03:22:53.611Z,51.42
2022-10-11T03:25:20.088Z,51.50
2022-10-11T03:27:46.558Z,51.57
2022-10-11T03:30:17.891Z,51.40
2022-10-11T03:32:44.719Z,51.46
2022-10-11T03:35:11.221Z,51.31
2022-10-11T03:37:37.924Z,51.37
2022-10-11T03:40:06.124Z,51.54
2022-10-11T03:42:32.622Z,51.29
2022-10-11T03:45:01.621Z,51.36
2022-10-11T03:47:28.084Z,51.39
2022-10-11T03:49:54.537Z,51.37
2022-10-11T03:52:21.059Z,51.41
2022-10-11T03:54:47.988Z,51.37
2022-10-11T03:57:14.801Z,51.33
2022-10-11T03:59:41.249Z,51.46
2022-10-11T04:02:07.860Z,51.39
2022-10-11T04:04:34.504Z,51.31
2022-10-11T04:07:00.977Z,51.50
2022-10-11T04:09:27.497Z,51.39
2022-10-11T04:11:54.015Z,51.45
2022-10-11T04:14:20.525Z,51.29
2022-10-11T04:16:47.027Z,51.49
2022-10-11T04:19:13.581Z,51.30
2022-10-11T04:21:40.228Z,51.22
2022-10-11T04:24:06.961Z,51.35
2022-10-11T04:26:33.409Z,51.12
2022-10-11T04:28:59.998Z,51.21
2022-10-11T04:31:26.490Z,51.04
2022-10-11T04:33:53.140Z,51.14
2022-10-11T04:36:19.653Z,51.29
2022-10-11T04:38:46.117Z,50.96
2022-10-11T04:41:13.986Z,51.28
2022-10-11T04:43:40.477Z,51.25
2022-10-11T04:46:08.387Z,51.23
2022-10-11T04:48:35.781Z,51.15
2022-10-11T04:51:02.333Z,51.33
2022-10-11T04:53:28.865Z,51.28
2022-10-11T04:56:01.545Z,51.53
2022-10-11T04:58:29.694Z,52.11
2022-10-11T05:00:57.001Z,52.48
2022-10-11T05:03:24.400Z,52.36
2022-10-11T05:05:51.085Z,52.31
2022-10-11T05:08:17.718Z,51.93
2022-10-11T05:10:54.973Z,52.13
2022-10-11T05:13:21.436Z,52.07
2022-10-11T05:15:47.996Z,52.25
2022-10-11T05:18:14.492Z,52.21
2022-10-11T05:20:41.399Z,52.12
2022-10-11T05:23:08.493Z,51.84
2022-10-11T05:25:35.048Z,51.77
2022-10-11T05:28:01.547Z,51.45
2022-10-11T05:30:28.065Z,51.69
2022-10-11T05:32:54.573Z,51.66
2022-10-11T05:35:21.032Z,51.57
2022-10-11T05:37:47.464Z,51.56
2022-10-11T05:40:14.233Z,51.56
2022-10-11T05:42:40.758Z,51.49
2022-10-11T05:45:07.706Z,51.14
2022-10-11T05:47:34.205Z,51.42
2022-10-11T05:50:00.637Z,51.34
2022-10-11T05:52:27.098Z,51.38
2022-10-11T05:54:53.563Z,51.29
2022-10-11T05:57:20.037Z,51.28
2022-10-11T05:59:46.508Z,51.29
2022-10-11T06:02:13.761Z,51.28
2022-10-11T06:04:40.230Z,51.17
2022-10-11T06:07:07.104Z,51.15
2022-10-11T06:09:36.394Z,51.15
2022-10-11T06:12:03.428Z,51.23
2022-10-11T06:14:29.913Z,51.13
2022-10-11T06:16:56.431Z,51.15
2022-10-11T06:19:23.052Z,51.10
2022-10-11T06:21:49.589Z,51.10
2022-10-11T06:24:16.070Z,51.21
2022-10-11T06:26:42.722Z,51.04
2022-10-11T06:29:09.930Z,50.51
2022-10-11T06:31:36.453Z,51.00
2022-10-11T06:34:02.963Z,51.02
2022-10-11T06:36:29.891Z,50.99
2022-10-11T06:38:56.467Z,51.01
2022-10-11T06:41:28.563Z,51.12
2022-10-11T06:43:55.763Z,50.97
2022-10-11T06:46:24.260Z,50.93
2022-10-11T06:48:51.256Z,50.98
2022-10-11T06:51:20.474Z,50.94
2022-10-11T06:53:51.818Z,50.96
2022-10-11T06:56:18.992Z,51.02
2022-10-11T06:58:45.590Z,51.09
2022-10-11T07:01:18.440Z,51.00
2022-10-11T07:03:48.060Z,50.93
2022-10-11T07:06:17.737Z,51.01
2022-10-11T07:08:44.209Z,50.98
2022-10-11T07:11:16.277Z,50.97
2022-10-11T07:13:43.351Z,50.86
2022-10-11T07:16:12.104Z,50.72
2022-10-11T07:18:39.145Z,50.86
2022-10-11T07:21:08.560Z,50.60
2022-10-11T07:23:35.369Z,50.46
2022-10-11T07:26:02.185Z,50.48
2022-10-11T07:28:30.610Z,50.52
2022-10-11T07:30:58.661Z,50.64
2022-10-11T07:33:25.288Z,50.53
2022-10-11T07:35:51.797Z,50.42
2022-10-11T07:38:18.371Z,50.30
2022-10-11T07:40:46.448Z,50.39
2022-10-11T07:43:13.941Z,50.25
2022-10-11T07:45:41.833Z,50.18
2022-10-11T07:48:08.852Z,50.27
2022-10-11T07:50:35.827Z,50.24
2022-10-11T07:53:02.659Z,50.04
2022-10-11T07:55:31.109Z,50.26
2022-10-11T07:57:58.013Z,50.11
2022-10-11T08:00:27.189Z,50.03
2022-10-11T08:02:53.668Z,50.07
2022-10-11T08:05:20.480Z,50.05
2022-10-11T08:07:48.757Z,50.12
2022-10-11T08:10:15.349Z,49.95
2022-10-11T08:12:41.785Z,50.02
2022-10-11T08:15:08.541Z,49.97
2022-10-11T08:17:35.184Z,50.15
2022-10-11T08:20:01.721Z,49.86
2022-10-11T08:22:28.164Z,49.88
2022-10-11T08:24:54.636Z,49.73
2022-10-11T08:27:21.134Z,49.82
2022-10-11T08:29:47.692Z,49.85
2022-10-11T08:32:14.161Z,49.88
2022-10-11T08:34:40.630Z,50.04
2022-10-11T08:37:07.096Z,50.04
2022-10-11T08:39:33.594Z,52.61
2022-10-11T08:42:15.445Z,53.33
2022-10-11T08:45:10.711Z,52.95
2022-10-11T08:47:42.760Z,53.09
2022-10-11T08:50:22.028Z,52.95
2022-10-11T08:53:14.724Z,52.62
2022-10-11T08:55:49.501Z,52.47
2022-10-11T08:58:19.173Z,52.17
2022-10-11T09:00:48.697Z,51.74
2022-10-11T09:03:35.433Z,51.67
2022-10-11T09:06:50.300Z,51.50
2022-10-11T09:10:04.038Z,51.32
2022-10-11T09:12:40.922Z,51.09
2022-10-11T09:15:14.617Z,50.97
2022-10-11T09:17:43.743Z,51.09
2022-10-11T09:20:31.729Z,50.82
2022-10-11T09:23:16.460Z,50.86
2022-10-11T09:25:54.980Z,50.60
2022-10-11T09:28:34.470Z,50.60
2022-10-11T09:31:01.181Z,50.66
2022-10-11T09:33:30.354Z,50.37
2022-10-11T09:35:57.434Z,50.49
2022-10-11T09:38:32.741Z,50.56
2022-10-11T09:41:11.691Z,50.50
2022-10-11T09:43:38.452Z,50.42
2022-10-11T09:46:27.600Z,50.33
2022-10-11T09:48:55.849Z,50.33
2022-10-11T09:51:25.912Z,50.28
2022-10-11T09:53:58.618Z,50.10
2022-10-11T09:56:27.629Z,50.20
2022-10-11T09:59:24.001Z,50.02
2022-10-11T10:02:15.395Z,50.08
2022-10-11T10:04:53.769Z,50.04
2022-10-11T10:07:21.144Z,50.09
2022-10-11T10:09:47.823Z,50.13
2022-10-11T10:12:22.678Z,49.93
2022-10-11T10:15:19.039Z,50.03
2022-10-11T10:17:53.112Z,49.76
2022-10-11T10:20:26.313Z,50.04
2022-10-11T10:22:53.453Z,50.13
2022-10-11T10:25:30.247Z,50.02
2022-10-11T10:27:59.552Z,50.08
2022-10-11T10:30:26.759Z,50.25
2022-10-11T10:33:02.698Z,50.18
2022-10-11T10:35:37.692Z,50.16
2022-10-11T10:38:26.676Z,50.16
2022-10-11T10:40:58.868Z,50.12
2022-10-11T10:43:28.008Z,50.10
2022-10-11T10:45:57.411Z,50.15
2022-10-11T10:49:18.803Z,50.11
2022-10-11T10:51:34.154Z,50.05
2022-10-11T10:54:08.609Z,50.09
2022-10-11T10:56:46.166Z,50.27
2022-10-11T10:59:31.217Z,50.19
2022-10-11T11:02:38.894Z,50.14
2022-10-11T11:05:32.780Z,50.28
2022-10-11T11:07:59.166Z,50.21
2022-10-11T11:10:33.733Z,50.17
2022-10-11T11:13:00.177Z,50.36
2022-10-11T11:15:49.574Z,50.45
2022-10-11T11:18:15.969Z,50.81
2022-10-11T11:21:31.949Z,50.67
2022-10-11T11:24:24.949Z,50.66
2022-10-11T11:27:01.016Z,50.44
2022-10-11T11:29:55.570Z,50.49
2022-10-11T11:33:00.555Z,50.35
2022-10-11T11:35:38.141Z,50.56
2022-10-11T11:38:14.354Z,50.58
2022-10-11T11:40:47.296Z,50.48
2022-10-11T11:43:35.601Z,50.38
2022-10-11T11:46:29.316Z,50.25
2022-10-11T11:48:58.692Z,50.51
2022-10-11T11:51:31.504Z,50.55
2022-10-11T11:54:12.778Z,50.51
2022-10-11T11:56:45.052Z,50.62
2022-10-11T11:59:17.292Z,50.57
2022-10-11T12:02:25.325Z,50.63
2022-10-11T12:04:52.961Z,50.56
2022-10-11T12:07:22.565Z,50.28
2022-10-11T12:09:54.420Z,50.61
2022-10-11T12:12:34.074Z,50.50
2022-10-11T12:15:09.925Z,50.53
2022-10-11T12:17:54.780Z,50.39
2022-10-11T12:20:25.637Z,50.36
2022-10-11T12:22:56.157Z,50.39
2022-10-11T12:25:22.568Z,50.36
2022-10-11T12:27:58.120Z,50.16
2022-10-11T12:30:42.792Z,50.13
2022-10-11T12:33:21.485Z,50.13
2022-10-11T12:36:05.584Z,50.07
2022-10-11T12:38:40.259Z,50.00
2022-10-11T12:41:09.512Z,49.98
2022-10-11T12:44:13.440Z,50.10
2022-10-11T12:46:40.324Z,50.02
2022-10-11T12:49:32.297Z,50.28
2022-10-11T12:52:02.553Z,50.69
2022-10-11T12:54:56.076Z,50.66
2022-10-11T12:57:45.940Z,50.82
2022-10-11T13:00:16.038Z,50.97
2022-10-11T13:02:42.709Z,51.36
2022-10-11T13:05:25.138Z,51.17
2022-10-11T13:07:53.754Z,51.30
2022-10-11T13:10:28.860Z,51.50
2022-10-11T13:12:59.545Z,51.56
2022-10-11T13:15:26.800Z,51.58
2022-10-11T13:17:59.995Z,51.64
2022-10-11T13:20:31.278Z,51.49
2022-10-11T13:22:58.509Z,51.68
2022-10-11T13:25:36.819Z,51.68
2022-10-11T13:28:03.858Z,51.68
2022-10-11T13:30:34.385Z,51.92
2022-10-11T13:33:05.794Z,52.02
2022-10-11T13:35:37.383Z,51.92
2022-10-11T13:38:08.112Z,52.00
2022-10-11T13:40:35.676Z,51.95
2022-10-11T13:43:05.179Z,52.31
2022-10-11T13:45:32.769Z,52.29
2022-10-11T13:47:59.392Z,52.27
2022-10-11T13:50:35.183Z,52.28
2022-10-11T13:53:10.709Z,52.20
2022-10-11T13:55:59.439Z,52.33
2022-10-11T13:58:46.826Z,52.26
2022-10-11T14:01:22.608Z,52.29
2022-10-11T14:03:57.236Z,52.30
2022-10-11T14:06:24.308Z,52.11
2022-10-11T14:08:55.968Z,52.60
2022-10-11T14:11:35.592Z,52.47
2022-10-11T14:14:34.168Z,52.54
2022-10-11T14:17:53.254Z,52.51
2022-10-11T14:20:19.702Z,52.46
2022-10-11T14:22:46.617Z,52.49
2022-10-11T14:25:13.371Z,52.49
2022-10-11T14:27:40.091Z,52.63
2022-10-11T14:30:25.183Z,52.25
2022-10-11T14:32:54.964Z,52.35
2022-10-11T14:35:27.261Z,52.54
2022-10-11T14:37:53.809Z,52.71
2022-10-11T14:40:24.173Z,52.55
2022-10-11T14:42:50.780Z,52.46
2022-10-11T14:45:18.257Z,52.45
2022-10-11T14:47:45.312Z,52.66
2022-10-11T14:50:26.344Z,52.81
2022-10-11T14:52:52.974Z,52.95
2022-10-11T14:55:19.488Z,52.87
2022-10-11T14:57:46.641Z,53.74
2022-10-11T15:00:23.013Z,53.38
2022-10-11T15:02:50.912Z,53.98
2022-10-11T15:05:17.378Z,54.05
2022-10-11T15:07:43.885Z,54.21
2022-10-11T15:10:21.756Z,54.78
2022-10-11T15:12:49.876Z,54.33
2022-10-11T15:15:20.561Z,54.13
2022-10-11T15:17:52.147Z,54.88
2022-10-11T15:20:27.431Z,55.68
2022-10-11T15:22:55.122Z,55.29
2022-10-11T15:25:22.492Z,55.50
2022-10-11T15:27:50.091Z,55.58
2022-10-11T15:30:21.250Z,54.91
2022-10-11T15:32:48.485Z,55.21
2022-10-11T15:35:16.038Z,54.92
2022-10-11T15:37:43.049Z,54.55
2022-10-11T15:40:36.931Z,55.43
2022-10-11T15:43:04.402Z,55.71
2022-10-11T15:45:30.997Z,55.00
2022-10-11T15:47:57.776Z,55.36
2022-10-11T15:50:34.610Z,55.69
2022-10-11T15:53:09.606Z,54.97
2022-10-11T15:55:39.598Z,53.86
2022-10-11T15:58:07.349Z,54.61
2022-10-11T16:00:33.821Z,54.90
2022-10-11T16:03:00.280Z,55.11
2022-10-11T16:05:28.276Z,56.06
2022-10-11T16:07:55.103Z,55.46
2022-10-11T16:10:21.694Z,55.89
2022-10-11T16:12:48.904Z,56.10
2022-10-11T16:15:15.721Z,55.58
2022-10-11T16:17:42.170Z,55.73
2022-10-11T16:20:08.915Z,55.79
2022-10-11T16:22:35.936Z,55.99
2022-10-11T16:25:02.781Z,56.37
2022-10-11T16:27:29.582Z,57.13
2022-10-11T16:29:56.261Z,57.12
2022-10-11T16:32:24.197Z,56.43
2022-10-11T16:34:50.729Z,56.53
2022-10-11T16:37:17.567Z,56.04
2022-10-11T16:39:44.144Z,55.78
2022-10-11T16:42:10.661Z,55.43
2022-10-11T16:44:38.773Z,55.18
2022-10-11T16:47:06.253Z,55.14
2022-10-11T16:49:33.296Z,54.97
2022-10-11T16:52:00.745Z,54.62
2022-10-11T16:54:27.658Z,54.15
2022-10-11T16:56:54.424Z,54.20
2022-10-11T16:59:20.987Z,54.07
2022-10-11T17:01:47.908Z,53.79
2022-10-11T17:04:14.644Z,53.66
2022-10-11T17:06:43.880Z,54.40
2022-10-11T17:09:11.073Z,54.74
2022-10-11T17:11:37.610Z,56.48
2022-10-11T17:14:05.895Z,56.04
2022-10-11T17:16:32.721Z,56.13
2022-10-11T17:18:59.310Z,57.20
2022-10-11T17:21:25.878Z,58.13
2022-10-11T17:23:52.756Z,57.60
2022-10-11T17:26:24.856Z,57.77
2022-10-11T17:28:51.538Z,57.32
2022-10-11T17:31:18.128Z,57.33
2022-10-11T17:33:44.631Z,56.96
2022-10-11T17:36:20.553Z,56.92
2022-10-11T17:38:48.185Z,56.35
2022-10-11T17:41:15.246Z,56.36
2022-10-11T17:43:41.791Z,56.17
2022-10-11T17:46:09.178Z,56.03
2022-10-11T17:48:39.090Z,55.95
2022-10-11T17:51:16.917Z,55.79
2022-10-11T17:53:43.692Z,55.42
2022-10-11T17:56:13.250Z,55.30
2022-10-11T17:58:40.008Z,55.23
2022-10-11T18:01:13.612Z,54.76
2022-10-11T18:03:40.870Z,54.42
2022-10-11T18:06:11.501Z,54.27
2022-10-11T18:08:40.666Z,54.11
2022-10-11T18:11:13.786Z,54.12
2022-10-11T18:13:43.203Z,54.01
2022-10-11T18:16:11.145Z,53.87
2022-10-11T18:18:38.461Z,53.46
2022-10-11T18:21:05.184Z,53.29
2022-10-11T18:23:32.836Z,53.49
2022-10-11T18:25:59.345Z,53.26
2022-10-11T18:28:25.834Z,53.33
2022-10-11T18:30:53.227Z,53.05
2022-10-11T18:33:19.696Z,53.00
2022-10-11T18:35:46.177Z,52.93
2022-10-11T18:38:12.632Z,52.83
2022-10-11T18:40:43.449Z,52.73
2022-10-11T18:43:12.743Z,52.82
2022-10-11T18:45:39.228Z,52.69
2022-10-11T18:48:05.764Z,52.71
2022-10-11T18:50:34.944Z,52.56
2022-10-11T18:53:02.260Z,52.86
2022-10-11T18:55:28.762Z,52.65
2022-10-11T18:57:55.214Z,52.18
2022-10-11T19:00:39.578Z,52.19
2022-10-11T19:03:06.941Z,52.40
2022-10-11T19:05:33.384Z,52.28
2022-10-11T19:07:59.860Z,52.26
2022-10-11T19:10:26.312Z,52.26
2022-10-11T19:12:52.775Z,52.05
2022-10-11T19:15:19.252Z,52.09
2022-10-11T19:17:45.704Z,52.12
2022-10-11T19:20:12.773Z,52.32
2022-10-11T19:22:39.234Z,52.08
2022-10-11T19:25:06.470Z,52.03
2022-10-11T19:27:32.948Z,52.02
2022-10-11T19:30:00.419Z,52.02
2022-10-11T19:32:26.988Z,52.04
2022-10-11T19:34:53.434Z,52.17
2022-10-11T19:37:19.916Z,52.58
2022-10-11T19:39:46.370Z,52.71
2022-10-11T19:42:12.823Z,52.74
2022-10-11T19:44:39.757Z,52.64
2022-10-11T19:47:06.640Z,52.72
2022-10-11T19:49:33.212Z,52.49
2022-10-11T19:52:01.084Z,52.51
2022-10-11T19:54:28.238Z,52.43
2022-10-11T19:56:54.726Z,52.37
2022-10-11T19:59:21.368Z,52.29
2022-10-11T20:01:52.457Z,52.11
2022-10-11T20:04:50.465Z,52.12
2022-10-11T20:07:06.614Z,52.04
2022-10-11T20:09:33.150Z,51.96
2022-10-11T20:11:59.607Z,52.00
2022-10-11T20:14:26.337Z,52.01
2022-10-11T20:16:52.833Z,52.03
2022-10-11T20:19:19.451Z,51.85
2022-10-11T20:21:46.043Z,51.84
2022-10-11T20:24:12.669Z,51.82
2022-10-11T20:26:39.647Z,51.94
2022-10-11T20:29:06.473Z,51.87
2022-10-11T20:31:34.567Z,51.72
2022-10-11T20:34:04.037Z,51.70
2022-10-11T20:36:31.365Z,51.73
2022-10-11T20:38:59.387Z,51.72
2022-10-11T20:41:28.342Z,51.63
2022-10-11T20:43:56.462Z,51.50
2022-10-11T20:46:28.068Z,51.46
2022-10-11T20:49:01.335Z,51.61
2022-10-11T20:51:29.868Z,51.55
2022-10-11T20:53:56.564Z,51.79
2022-10-11T20:56:23.675Z,51.51
2022-10-11T20:58:52.619Z,51.47
2022-10-11T21:01:21.327Z,51.63
2022-10-11T21:03:47.919Z,51.62
2022-10-11T21:06:14.431Z,51.50
2022-10-11T21:08:40.985Z,51.61
2022-10-11T21:11:08.695Z,51.53
2022-10-11T21:13:36.054Z,51.47
2022-10-11T21:16:06.860Z,51.48
2022-10-11T21:18:33.437Z,51.43
2022-10-11T21:21:11.056Z,51.25
2022-10-11T21:23:37.741Z,51.37
2022-10-11T21:26:12.404Z,51.37
2022-10-11T21:28:40.179Z,51.23
2022-10-11T21:31:12.491Z,51.36
2022-10-11T21:33:39.946Z,51.30
2022-10-11T21:36:07.501Z,51.40
2022-10-11T21:38:34.724Z,51.39
2022-10-11T21:41:08.978Z,51.37
2022-10-11T21:43:38.117Z,51.19
2022-10-11T21:47:05.013Z,51.21
2022-10-11T21:49:22.773Z,51.22
2022-10-11T21:51:49.293Z,51.25
2022-10-11T21:54:16.539Z,51.25
2022-10-11T21:56:43.150Z,51.25
2022-10-11T21:59:12.380Z,51.20
2022-10-11T22:01:40.225Z,51.37
2022-10-11T22:04:09.635Z,51.40
2022-10-11T22:06:37.467Z,51.39
2022-10-11T22:09:05.423Z,51.35
2022-10-11T22:11:31.936Z,51.32
2022-10-11T22:13:58.726Z,51.49
2022-10-11T22:16:25.256Z,51.39
2022-10-11T22:18:53.464Z,51.40
2022-10-11T22:21:22.066Z,51.36
2022-10-11T22:23:52.382Z,51.26
2022-10-11T22:26:21.741Z,51.21
2022-10-11T22:28:49.141Z,51.38
2022-10-11T22:31:17.344Z,51.34
2022-10-11T22:36:12.808Z,51.24
2022-10-11T22:38:40.608Z,51.21
2022-10-11T22:41:07.730Z,51.00
2022-10-11T22:43:34.493Z,51.44
2022-10-11T22:46:01.343Z,51.14
2022-10-11T22:48:27.808Z,51.14
2022-10-11T22:50:54.300Z,51.02
2022-10-11T22:53:20.769Z,51.18
2022-10-11T22:55:47.278Z,51.10
2022-10-11T22:58:14.113Z,51.03
2022-10-11T23:00:40.594Z,51.17
2022-10-11T23:03:07.544Z,51.06
2022-10-11T23:05:34.905Z,51.07
2022-10-11T23:08:01.404Z,51.06
2022-10-11T23:10:27.985Z,51.04
2022-10-11T23:12:54.462Z,51.02
2022-10-11T23:15:20.949Z,51.13
2022-10-11T23:17:48.396Z,51.03
2022-10-11T23:20:14.902Z,51.06
2022-10-11T23:22:41.376Z,50.96
2022-10-11T23:25:08.381Z,50.96
2022-10-11T23:27:34.918Z,51.06
2022-10-11T23:30:01.583Z,51.01
2022-10-11T23:32:28.032Z,50.94
2022-10-11T23:34:54.549Z,50.93
2022-10-11T23:37:21.035Z,51.03
2022-10-11T23:39:47.496Z,50.84
2022-10-11T23:42:14.005Z,50.92
2022-10-11T23:44:40.689Z,51.00
2022-10-11T23:47:07.204Z,50.85
2022-10-11T23:49:33.708Z,50.93
2022-10-11T23:52:00.212Z,50.82
2022-10-11T23:54:26.761Z,50.75
2022-10-11T23:56:53.226Z,50.82
2022-10-11T23:59:19.769Z,50.90
